Site contains unofficial IBTrACS data. Visit the IBTrACS Website to access archived data.

1883 NOT_NAMED (1883021S22057)


IBTrACS version v04r00. Visit IBTrACS website for data access.
Please direct all questions to the IBTrACS Q and A forum

Storm track - Intensity - Wind Radii - Intensity Data - Source Data - All data

Summary Information

Storm ID 1883021S22057
Start Jan 21 06Z
End Jan 27 06Z
ATCF IDs
Track status Best track data.

Storm track plot

Map of storm track

Intensity plots

No Intensity information for this storm


Radial wind information

No radial wind information for this storm


Position and Intensity Table

BASIN ISO_TIME_________ NATURE LAT LON
degrees north degrees east
SI 1883-01-21 06:00:00 NR -22.30 56.70
SI 09:00:00 NR -22.32 56.72
SI 12:00:00 NR -22.34 56.74
SI 15:00:00 NR -22.37 56.74
SI 18:00:00 NR -22.42 56.73
SI 21:00:00 NR -22.48 56.70
SI 1883-01-22 00:00:00 NR -22.56 56.63
SI 03:00:00 NR -22.66 56.54
SI 06:00:00 NR -22.80 56.40
SI 09:00:00 NR -22.97 56.22
SI 12:00:00 NR -23.18 56.00
SI 15:00:00 NR -23.43 55.75
SI 18:00:00 NR -23.73 55.49
SI 21:00:00 NR -24.08 55.21
SI 1883-01-23 00:00:00 NR -24.49 54.93
SI 03:00:00 NR -24.96 54.66
SI 06:00:00 NR -25.50 54.40
SI 09:00:00 NR -26.16 54.14
SI 12:00:00 NR -26.91 53.89
SI 15:00:00 NR -27.71 53.64
SI 18:00:00 NR -28.54 53.42
SI 21:00:00 NR -29.38 53.22
SI 1883-01-24 00:00:00 NR -30.20 53.07
SI 03:00:00 NR -30.98 52.95
SI 06:00:00 NR -31.70 52.90
SI 09:00:00 NR -32.25 52.89
SI 12:00:00 NR -32.75 52.94
SI 15:00:00 NR -33.19 53.04
SI 18:00:00 NR -33.61 53.19
SI 21:00:00 NR -34.01 53.39
SI 1883-01-25 00:00:00 NR -34.40 53.62
SI 03:00:00 NR -34.79 53.89
SI 06:00:00 NR -35.20 54.20
SI 09:00:00 NR -35.74 54.56
SI 12:00:00 NR -36.31 54.96
SI 15:00:00 NR -36.87 55.40
SI 18:00:00 NR -37.43 55.86
SI 21:00:00 NR -37.95 56.32
SI 1883-01-26 00:00:00 NR -38.43 56.75
SI 03:00:00 NR -38.85 57.16
SI 06:00:00 NR -39.20 57.50
SI 09:00:00 NR -39.46 57.77
SI 12:00:00 NR -39.65 57.98
SI 15:00:00 NR -39.78 58.12
SI 18:00:00 NR -39.85 58.22
SI 21:00:00 NR -39.87 58.27
SI 1883-01-27 00:00:00 NR -39.87 58.30
SI 03:00:00 NR -39.84 58.31
SI 06:00:00 NR -39.80 58.30

Source Information

Agency Information
USA
TOKYO
CMA
HKO
NEWDELHI
REUNION WMO-Best-Tracks.txt:Line=1308:xxxx883192
BOM
NADI
WELLINGTON
DS824
TD9636
TD9635
NEUMANN
MLC

All available IBTrACS Data

SEASON BASIN SUBBASIN ISO_TIME_________ NATURE LAT LON WMO AGENCY DIST2LAND LANDFALL IFLAG USA SSHS REUNION LAT REUNION LON REUNION TYPE REUNION TNUM STORM SPEED STORM DIR
Year degrees north degrees east km km 1 degrees north degrees east 1 kts degrees
1883 SI MM 1883-01-21 06:00:00 NR -22.30 56.70 reunion 145 145 _____O________ -1 -22.30 56.70 99 9.90 1 0
1883 SI MM 09:00:00 NR -22.32 56.72 145 145 _____P________ -1 -22.32 56.72 99 1 137
1883 SI MM 12:00:00 NR -22.34 56.74 145 145 _____P________ -1 -22.34 56.74 99 1 163
1883 SI MM 15:00:00 NR -22.37 56.74 154 154 _____P________ -1 -22.37 56.74 99 1 199
1883 SI MM 18:00:00 NR -22.42 56.73 154 154 _____P________ -1 -22.42 56.73 99 1 202
1883 SI MM 21:00:00 NR -22.48 56.70 163 157 _____P________ -1 -22.48 56.70 99 2 212
1883 SI MM 1883-01-22 00:00:00 NR -22.56 56.63 167 167 _____P________ -1 -22.56 56.63 99 2 219
1883 SI MM 03:00:00 NR -22.66 56.54 172 172 _____P________ -1 -22.66 56.54 99 3 222
1883 SI MM 06:00:00 NR -22.80 56.40 reunion 176 176 _____O________ -1 -22.80 56.40 99 9.90 4 224
1883 SI MM 09:00:00 NR -22.97 56.22 189 186 _____P________ -1 -22.97 56.22 99 5 224
1883 SI MM 12:00:00 NR -23.18 56.00 205 203 _____P________ -1 -23.18 56.00 99 6 223
1883 SI MM 15:00:00 NR -23.43 55.75 224 223 _____P________ -1 -23.43 55.75 99 7 221
1883 SI MM 18:00:00 NR -23.73 55.49 257 257 _____P________ -1 -23.73 55.49 99 8 217
1883 SI MM 21:00:00 NR -24.08 55.21 304 304 _____P________ -1 -24.08 55.21 99 9 214
1883 SI MM 1883-01-23 00:00:00 NR -24.49 54.93 353 353 _____P________ -1 -24.49 54.93 99 10 210
1883 SI MM 03:00:00 NR -24.96 54.66 412 412 _____P________ -1 -24.96 54.66 99 11 205
1883 SI MM 06:00:00 NR -25.50 54.40 reunion 474 474 _____O________ -1 -25.50 54.40 99 9.90 13 201
1883 SI MM 09:00:00 NR -26.16 54.14 557 557 _____P________ -1 -26.16 54.14 99 15 198
1883 SI MM 12:00:00 NR -26.91 53.89 638 638 _____P________ -1 -26.91 53.89 99 16 196
1883 SI MM 15:00:00 NR -27.71 53.64 713 713 _____P________ -1 -27.71 53.64 99 17 194
1883 SI MM 18:00:00 NR -28.54 53.42 736 736 _____P________ -1 -28.54 53.42 99 17 192
1883 SI MM 21:00:00 NR -29.38 53.22 777 777 _____P________ -1 -29.38 53.22 99 17 191
1883 SI MM 1883-01-24 00:00:00 NR -30.20 53.07 827 827 _____P________ -1 -30.20 53.07 99 16 188
1883 SI MM 03:00:00 NR -30.98 52.95 882 882 _____P________ -1 -30.98 52.95 99 15 185
1883 SI MM 06:00:00 NR -31.70 52.90 reunion 935 935 _____O________ -1 -31.70 52.90 99 9.90 13 183
1883 SI MM 09:00:00 NR -32.25 52.89 987 987 _____P________ -1 -32.25 52.89 99 10 178
1883 SI MM 12:00:00 NR -32.75 52.94 1023 1023 _____P________ -1 -32.75 52.94 99 10 173
1883 SI MM 15:00:00 NR -33.19 53.04 1074 1074 _____P________ -1 -33.19 53.04 99 9 166
1883 SI MM 18:00:00 NR -33.61 53.19 1121 1121 _____P________ -1 -33.61 53.19 99 9 160
1883 SI MM 21:00:00 NR -34.01 53.39 1169 1169 _____P________ -1 -34.01 53.39 99 9 156
1883 SI MM 1883-01-25 00:00:00 NR -34.40 53.62 1216 1216 _____P________ -1 -34.40 53.62 99 9 152
1883 SI MM 03:00:00 NR -34.79 53.89 1268 1268 _____P________ -1 -34.79 53.89 99 9 149
1883 SI MM 06:00:00 NR -35.20 54.20 reunion 1321 1321 _____O________ -1 -35.20 54.20 99 9.90 11 150
1883 SI MM 09:00:00 NR -35.74 54.56 1387 1387 _____P________ -1 -35.74 54.56 99 13 151
1883 SI MM 12:00:00 NR -36.31 54.96 1463 1463 _____P________ -1 -36.31 54.96 99 13 149
1883 SI MM 15:00:00 NR -36.87 55.40 1538 1538 _____P________ -1 -36.87 55.40 99 13 147
1883 SI MM 18:00:00 NR -37.43 55.86 1609 1576 _____P________ -1 -37.43 55.86 99 13 146
1883 SI MM 21:00:00 NR -37.95 56.32 1576 1511 _____P________ -1 -37.95 56.32 99 12 145
1883 SI MM 1883-01-26 00:00:00 NR -38.43 56.75 1505 1454 _____P________ -1 -38.43 56.75 99 11 144
1883 SI MM 03:00:00 NR -38.85 57.16 1440 1398 _____P________ -1 -38.85 57.16 99 10 143
1883 SI MM 06:00:00 NR -39.20 57.50 reunion 1398 1356 _____O________ -1 -39.20 57.50 99 9.90 8 142
1883 SI MM 09:00:00 NR -39.46 57.77 1356 1337 _____P________ -1 -39.46 57.77 99 6 141
1883 SI MM 12:00:00 NR -39.65 57.98 1328 1314 _____P________ -1 -39.65 57.98 99 4 139
1883 SI MM 15:00:00 NR -39.78 58.12 1314 1309 _____P________ -1 -39.78 58.12 99 3 136
1883 SI MM 18:00:00 NR -39.85 58.22 1309 1295 _____P________ -1 -39.85 58.22 99 2 129
1883 SI MM 21:00:00 NR -39.87 58.27 1295 1295 _____P________ -1 -39.87 58.27 99 1 111
1883 SI MM 1883-01-27 00:00:00 NR -39.87 58.30 1295 1295 _____P________ -1 -39.87 58.30 99 0 31
1883 SI MM 03:00:00 NR -39.84 58.31 1303 1303 _____P________ -1 -39.84 58.31 99 1 15
1883 SI MM 06:00:00 NR -39.80 58.30 reunion 1303 _____O________ -1 -39.80 58.30 99 9.90 1 347